Time;durP1;ratioP1;P1;durP2;ratioP2;P2;SDS_P1;SDS_P2;PMS_P1;PMS_P2;Temp;Humidity;BMP_temperature;BMP_pressure;BME280_temperature;BME280_humidity;BME280_pressure;Samples;Min_cycle;Max_cycle;Signal;HPM_P1;HPM_P2
2021/03/26 00:01:42;;;;;;;12.13;2.80;;;9.30;99.90;;;;;;5072305;28;20098;-74
2021/03/26 00:04:10;;;;;;;8.85;2.88;;;9.20;99.90;;;;;;5071621;28;20017;-74
2021/03/26 00:06:40;;;;;;;7.75;2.22;;;9.20;99.90;;;;;;5070082;28;20040;-74
2021/03/26 00:09:07;;;;;;;13.55;3.45;;;9.20;99.90;;;;;;5071830;28;20347;-74
2021/03/26 00:11:34;;;;;;;14.43;3.13;;;9.20;99.90;;;;;;5072561;28;20108;-74
2021/03/26 00:13:59;;;;;;;4.70;2.42;;;9.10;99.90;;;;;;5054733;28;20042;-74
2021/03/26 00:16:25;;;;;;;6.82;2.78;;;9.10;99.90;;;;;;5071847;28;20602;-74
2021/03/26 00:18:51;;;;;;;12.98;2.80;;;9.20;99.90;;;;;;5072474;28;20525;-74
2021/03/26 00:21:18;;;;;;;11.82;3.40;;;9.20;99.90;;;;;;5060285;28;20385;-74
2021/03/26 00:23:44;;;;;;;13.75;3.03;;;9.20;99.90;;;;;;5066694;28;20056;-74
2021/03/26 00:26:10;;;;;;;7.90;2.40;;;9.20;99.90;;;;;;5054629;28;20028;-74
2021/03/26 00:28:36;;;;;;;14.65;3.05;;;9.20;99.90;;;;;;5070870;28;20427;-74
2021/03/26 00:31:01;;;;;;;6.60;2.95;;;9.30;99.90;;;;;;5072306;28;20153;-74
2021/03/26 00:33:27;;;;;;;9.55;2.55;;;9.30;99.90;;;;;;5072470;28;20025;-74
2021/03/26 00:35:54;;;;;;;5.60;2.42;;;9.30;99.90;;;;;;5071786;28;20027;-74
2021/03/26 00:38:21;;;;;;;8.35;3.17;;;9.20;99.90;;;;;;5071361;28;20387;-74
2021/03/26 00:40:47;;;;;;;6.53;2.95;;;9.20;99.90;;;;;;5071642;28;20028;-74
2021/03/26 00:43:12;;;;;;;13.90;2.90;;;9.10;99.90;;;;;;5071107;28;20028;-74
2021/03/26 00:45:38;;;;;;;10.70;3.78;;;9.00;99.90;;;;;;5051539;28;20416;-74
2021/03/26 00:48:06;;;;;;;9.98;3.15;;;8.90;99.90;;;;;;5071583;28;20094;-75
2021/03/26 00:50:41;;;;;;;13.70;3.58;;;8.90;99.90;;;;;;5066525;28;20059;-74
2021/03/26 00:53:20;;;;;;;9.75;3.35;;;8.80;99.90;;;;;;5039498;28;20111;-75
2021/03/26 00:55:46;;;;;;;10.73;4.18;;;8.70;99.90;;;;;;5072299;28;20029;-74
2021/03/26 00:58:12;;;;;;;12.15;3.50;;;8.70;99.90;;;;;;5054149;28;20051;-74
2021/03/26 01:00:38;;;;;;;10.77;3.65;;;8.80;99.90;;;;;;5053171;28;20021;-75
2021/03/26 01:03:05;;;;;;;11.80;3.00;;;8.70;99.90;;;;;;5071772;28;20025;-74
2021/03/26 01:05:33;;;;;;;13.30;3.80;;;8.60;99.90;;;;;;5060863;28;20056;-75
2021/03/26 01:07:59;;;;;;;11.85;4.05;;;8.60;99.90;;;;;;5071758;28;20107;-74
2021/03/26 01:10:31;;;;;;;9.13;4.00;;;8.60;99.90;;;;;;5038307;28;20056;-74
2021/03/26 01:12:59;;;;;;;10.55;4.13;;;8.50;99.90;;;;;;5065569;28;20029;-74
2021/03/26 01:15:27;;;;;;;10.07;5.30;;;8.60;99.90;;;;;;5070935;28;20017;-74
2021/03/26 01:17:54;;;;;;;4.93;3.42;;;8.60;99.90;;;;;;5070788;28;20529;-74
2021/03/26 01:20:24;;;;;;;9.90;4.28;;;8.60;99.90;;;;;;5071698;28;20093;-75
2021/03/26 01:22:50;;;;;;;12.27;4.00;;;8.60;99.90;;;;;;5070116;28;20017;-74
2021/03/26 01:25:23;;;;;;;11.95;4.20;;;8.50;99.90;;;;;;5069259;28;20044;-75
2021/03/26 01:27:49;;;;;;;11.05;4.00;;;8.50;99.90;;;;;;5041671;28;20021;-74
2021/03/26 01:30:17;;;;;;;14.95;4.65;;;8.40;99.90;;;;;;5070872;28;20492;-74
2021/03/26 01:32:43;;;;;;;13.80;4.28;;;8.40;99.90;;;;;;5068480;28;20377;-75
2021/03/26 01:35:10;;;;;;;10.80;4.72;;;8.40;99.90;;;;;;5065437;28;20020;-74
2021/03/26 01:37:36;;;;;;;12.53;5.43;;;8.40;99.90;;;;;;5053525;28;20116;-75
2021/03/26 01:40:09;;;;;;;10.82;3.85;;;8.30;99.90;;;;;;5067291;28;20053;-74
2021/03/26 01:42:36;;;;;;;9.60;4.63;;;8.30;99.90;;;;;;5070750;28;20028;-75
2021/03/26 01:45:07;;;;;;;16.98;4.45;;;8.30;99.90;;;;;;5068750;28;20021;-75
2021/03/26 01:47:32;;;;;;;10.50;4.15;;;8.30;99.90;;;;;;5051327;28;20489;-75
2021/03/26 01:49:58;;;;;;;7.38;4.13;;;8.30;99.90;;;;;;5048914;28;20017;-74
2021/03/26 01:52:23;;;;;;;10.02;4.60;;;8.30;99.90;;;;;;5067254;28;20043;-74
2021/03/26 01:54:49;;;;;;;11.05;4.28;;;8.20;99.90;;;;;;5065080;28;20499;-75
2021/03/26 01:57:15;;;;;;;20.65;5.97;;;8.30;99.90;;;;;;5057089;28;20028;-74
2021/03/26 01:59:41;;;;;;;15.70;4.72;;;8.30;99.90;;;;;;5073704;28;20028;-74
2021/03/26 02:02:17;;;;;;;7.25;4.22;;;8.20;99.90;;;;;;5068203;28;20500;-74
2021/03/26 02:04:46;;;;;;;11.55;3.88;;;8.20;99.90;;;;;;5074420;28;20029;-74
2021/03/26 02:07:14;;;;;;;11.75;4.90;;;8.20;99.90;;;;;;5065373;28;20033;-74
2021/03/26 02:09:41;;;;;;;7.10;3.85;;;8.20;99.90;;;;;;5056618;28;20028;-74
2021/03/26 02:12:08;;;;;;;15.60;4.82;;;8.20;99.90;;;;;;5074905;28;20021;-75
2021/03/26 02:14:49;;;;;;;14.47;5.10;;;8.20;99.90;;;;;;5074206;28;20468;-74
2021/03/26 02:17:17;;;;;;;8.88;4.65;;;8.20;99.90;;;;;;5073980;28;20508;-74
2021/03/26 02:19:49;;;;;;;11.35;4.85;;;8.30;99.90;;;;;;5073509;28;20024;-74
2021/03/26 02:22:16;;;;;;;6.05;4.95;;;8.40;99.90;;;;;;5068870;28;20541;-74
2021/03/26 02:24:43;;;;;;;9.95;5.38;;;8.40;99.90;;;;;;5074695;28;20044;-74
2021/03/26 02:27:20;;;;;;;11.57;5.10;;;8.40;99.90;;;;;;5073387;28;20469;-74
2021/03/26 02:29:46;;;;;;;12.47;4.67;;;8.50;99.90;;;;;;5073288;28;20602;-74
2021/03/26 02:32:22;;;;;;;12.30;5.35;;;8.50;99.90;;;;;;5048992;28;20140;-75
2021/03/26 02:35:17;;;;;;;9.43;5.07;;;8.60;99.90;;;;;;5066759;28;20489;-74
2021/03/26 02:37:51;;;;;;;13.95;5.82;;;8.50;99.90;;;;;;5073083;28;20017;-74
2021/03/26 02:40:31;;;;;;;10.02;4.65;;;8.50;99.90;;;;;;5069491;28;20029;-74
2021/03/26 02:43:07;;;;;;;11.20;4.82;;;8.50;99.90;;;;;;5071345;28;20392;-74
2021/03/26 02:45:40;;;;;;;8.63;5.32;;;8.60;99.90;;;;;;5056577;28;20108;-74
2021/03/26 02:48:14;;;;;;;9.27;5.95;;;8.60;99.90;;;;;;5073827;28;20036;-74
2021/03/26 02:50:49;;;;;;;15.40;6.63;;;8.70;99.90;;;;;;5074223;28;20275;-74
2021/03/26 02:53:26;;;;;;;13.90;5.85;;;8.70;99.90;;;;;;5074174;28;20317;-75
2021/03/26 02:56:04;;;;;;;13.53;6.67;;;8.70;99.90;;;;;;5074363;28;20086;-74
2021/03/26 02:58:32;;;;;;;;;;;8.70;99.90;;;;;;5074448;28;20285;-74
2021/03/26 03:01:03;;;;;;;;;;;8.70;99.90;;;;;;5061720;28;19913;-74
2021/03/26 03:03:31;;;;;;;15.70;8.15;;;8.70;99.90;;;;;;5073934;28;20261;-75
2021/03/26 03:06:17;;;;;;;20.95;7.70;;;8.60;99.90;;;;;;5074839;28;20469;-74
2021/03/26 03:08:44;;;;;;;16.25;8.45;;;8.70;99.90;;;;;;5047522;28;20021;-75
2021/03/26 03:11:26;;;;;;;20.20;8.50;;;8.70;99.90;;;;;;5070128;28;20520;-74
2021/03/26 03:14:01;;;;;;;21.70;10.02;;;8.70;99.90;;;;;;5056587;28;20082;-75
2021/03/26 03:16:40;;;;;;;32.30;10.50;;;8.60;99.90;;;;;;5073660;28;20020;-75
2021/03/26 03:19:11;;;;;;;20.65;9.82;;;8.60;99.90;;;;;;5065751;28;20025;-74
2021/03/26 03:21:44;;;;;;;24.10;10.05;;;8.70;99.90;;;;;;5073992;28;20024;-75
2021/03/26 03:24:23;;;;;;;20.92;10.18;;;8.70;99.90;;;;;;5054812;28;20024;-75
2021/03/26 03:27:02;;;;;;;23.42;11.40;;;8.70;99.90;;;;;;5072618;28;20333;-75
2021/03/26 03:29:57;;;;;;;23.42;11.65;;;8.60;99.90;;;;;;5054572;28;20033;-74
2021/03/26 03:32:45;;;;;;;25.80;11.38;;;8.60;99.90;;;;;;5055425;28;20033;-74
2021/03/26 03:35:21;;;;;;;24.05;11.57;;;8.60;99.90;;;;;;5048854;28;20044;-74
2021/03/26 03:37:56;;;;;;;23.70;12.00;;;8.70;99.90;;;;;;5064955;28;20036;-74
2021/03/26 03:40:26;;;;;;;28.08;12.15;;;8.60;99.90;;;;;;5072785;28;20032;-74
2021/03/26 03:42:55;;;;;;;25.67;12.30;;;8.50;99.90;;;;;;5059680;28;20028;-73
2021/03/26 03:45:57;;;;;;;31.33;14.02;;;8.40;99.90;;;;;;5072802;28;20048;-73
2021/03/26 03:48:35;;;;;;;27.13;12.80;;;8.40;99.90;;;;;;5070861;28;20131;-73
2021/03/26 03:51:03;;;;;;;;;;;8.40;99.90;;;;;;5072083;28;20111;-73
2021/03/26 03:53:36;;;;;;;24.75;13.48;;;8.30;99.90;;;;;;5073085;28;19915;-73
2021/03/26 03:56:14;;;;;;;27.73;13.23;;;8.30;99.90;;;;;;5068474;28;20040;-73
2021/03/26 03:58:43;;;;;;;28.05;13.43;;;8.30;99.90;;;;;;5069732;28;20025;-73
2021/03/26 04:01:23;;;;;;;26.20;13.75;;;8.30;99.90;;;;;;5053476;28;20602;-73
2021/03/26 04:04:01;;;;;;;28.85;13.68;;;8.30;99.90;;;;;;5070911;28;20020;-73
2021/03/26 04:06:42;;;;;;;29.40;14.40;;;8.30;99.90;;;;;;5062006;28;20032;-73
2021/03/26 04:09:14;;;;;;;26.30;13.45;;;8.40;99.90;;;;;;5070972;28;20370;-73
2021/03/26 04:11:53;;;;;;;27.15;14.05;;;8.50;99.90;;;;;;5072634;28;20105;-73
2021/03/26 04:14:41;;;;;;;32.95;13.90;;;8.50;99.90;;;;;;5072069;28;20025;-73
2021/03/26 04:17:18;;;;;;;27.15;13.77;;;8.50;99.90;;;;;;5053111;28;20081;-74
2021/03/26 04:19:53;;;;;;;30.85;14.00;;;8.50;99.90;;;;;;5065195;28;20073;-73
2021/03/26 04:22:26;;;;;;;33.08;14.48;;;8.50;99.90;;;;;;5054225;28;20032;-73
2021/03/26 04:24:58;;;;;;;28.00;13.07;;;8.50;99.90;;;;;;5072110;28;20017;-73
2021/03/26 04:27:29;;;;;;;30.50;14.13;;;8.50;99.90;;;;;;5057780;28;20096;-73
2021/03/26 04:30:20;;;;;;;28.17;14.35;;;8.60;99.90;;;;;;5050656;28;20376;-73
2021/03/26 04:32:47;;;;;;;26.35;13.23;;;8.60;99.90;;;;;;5047340;28;20024;-73
2021/03/26 04:35:16;;;;;;;29.15;13.07;;;8.70;99.90;;;;;;5064803;28;20025;-73
2021/03/26 04:38:07;;;;;;;27.23;13.02;;;8.80;99.90;;;;;;5048669;28;20035;-73
2021/03/26 04:40:37;;;;;;;29.52;13.88;;;8.80;99.90;;;;;;5053508;28;20465;-73
2021/03/26 04:43:31;;;;;;;25.92;13.35;;;8.80;99.90;;;;;;5072058;28;20020;-75
2021/03/26 04:46:11;;;;;;;24.60;12.73;;;8.80;99.90;;;;;;5071762;28;20473;-76
2021/03/26 04:49:04;;;;;;;25.77;13.48;;;8.80;99.90;;;;;;5054029;28;20097;-76
2021/03/26 04:51:39;;;;;;;29.15;13.50;;;8.80;99.90;;;;;;5070324;28;20369;-74
2021/03/26 04:54:16;;;;;;;29.45;14.13;;;8.90;99.90;;;;;;5070724;28;20052;-75
2021/03/26 04:56:56;;;;;;;32.60;14.23;;;8.90;99.90;;;;;;5063139;28;20055;-74
2021/03/26 04:59:36;;;;;;;24.70;12.80;;;8.90;99.90;;;;;;5047645;28;20068;-74
2021/03/26 05:02:04;;;;;;;29.08;12.57;;;8.90;99.90;;;;;;5066523;28;20060;-74
2021/03/26 05:04:36;;;;;;;26.40;13.68;;;9.00;99.90;;;;;;5070606;28;20107;-74
2021/03/26 05:07:07;;;;;;;27.88;13.13;;;9.00;99.90;;;;;;5054859;28;20025;-74
2021/03/26 05:09:38;;;;;;;31.50;13.85;;;9.00;99.90;;;;;;5058367;28;20024;-74
2021/03/26 05:12:17;;;;;;;25.65;13.25;;;9.00;99.90;;;;;;5072324;28;20040;-74
2021/03/26 05:14:48;;;;;;;24.30;12.80;;;9.00;99.90;;;;;;5073635;28;20059;-74
2021/03/26 05:17:25;;;;;;;30.23;13.27;;;9.00;99.90;;;;;;5075610;28;20029;-73
2021/03/26 05:20:03;;;;;;;24.73;12.55;;;9.00;99.90;;;;;;5055536;28;20016;-74
2021/03/26 05:22:41;;;;;;;;;;;9.00;99.90;;;;;;5047981;28;20441;-73
2021/03/26 05:25:11;;;;;;;27.00;12.35;;;9.10;99.90;;;;;;5071499;28;19931;-74
2021/03/26 05:27:37;;;;;;;34.35;15.23;;;9.10;99.90;;;;;;5075763;28;20031;-73
2021/03/26 05:30:04;;;;;;;28.48;12.98;;;9.00;99.90;;;;;;5073387;28;20594;-74
2021/03/26 05:32:51;;;;;;;28.20;13.73;;;9.00;99.90;;;;;;5076217;28;20036;-74
2021/03/26 05:35:31;;;;;;;23.83;12.45;;;9.00;99.90;;;;;;5075984;28;20032;-73
2021/03/26 05:38:07;;;;;;;29.52;13.27;;;9.10;99.90;;;;;;5075117;28;20107;-73
2021/03/26 05:40:46;;;;;;;25.35;12.50;;;9.10;99.90;;;;;;5075881;28;20039;-73
2021/03/26 05:43:42;;;;;;;32.92;13.07;;;9.20;99.90;;;;;;5075945;28;20536;-74
2021/03/26 05:46:41;;;;;;;28.60;12.68;;;9.10;99.90;;;;;;5074858;28;20028;-74
2021/03/26 05:49:44;;;;;;;30.42;13.02;;;9.20;99.90;;;;;;5072691;28;20033;-74
2021/03/26 05:52:31;;;;;;;27.33;12.80;;;9.20;99.90;;;;;;5068755;28;20040;-73
2021/03/26 05:55:32;;;;;;;24.58;13.45;;;9.20;99.90;;;;;;5071743;28;20032;-74
2021/03/26 05:58:23;;;;;;;24.02;12.02;;;9.20;99.90;;;;;;5056276;28;20044;-74
2021/03/26 06:01:26;;;;;;;24.65;12.77;;;9.20;99.90;;;;;;5074211;28;20035;-73
2021/03/26 06:04:16;;;;;;;27.65;12.68;;;9.30;99.90;;;;;;5073261;28;20089;-73
2021/03/26 06:07:10;;;;;;;21.15;10.73;;;9.20;99.90;;;;;;5075042;28;20044;-73
2021/03/26 06:10:02;;;;;;;28.75;12.13;;;9.20;99.90;;;;;;5042610;28;20124;-74
2021/03/26 06:13:05;;;;;;;23.70;12.18;;;9.30;99.90;;;;;;5072470;28;20033;-74
2021/03/26 06:16:08;;;;;;;22.65;11.88;;;9.20;99.90;;;;;;5044173;28;20040;-73
2021/03/26 06:19:04;;;;;;;22.75;11.50;;;9.20;99.90;;;;;;5070839;28;20039;-74
2021/03/26 06:21:36;;;;;;;25.45;11.68;;;9.30;99.90;;;;;;5056057;28;20119;-73
2021/03/26 06:24:04;;;;;;;34.58;12.90;;;9.30;99.90;;;;;;5054779;28;20492;-73
2021/03/26 06:26:46;;;;;;;28.63;11.07;;;9.30;99.90;;;;;;5073169;28;20103;-75
2021/03/26 06:29:50;;;;;;;21.17;11.45;;;9.40;99.90;;;;;;5061618;28;20132;-75
2021/03/26 06:32:46;;;;;;;26.27;11.88;;;9.40;99.90;;;;;;5074450;28;20021;-75
2021/03/26 06:35:23;;;;;;;24.50;11.13;;;9.50;99.90;;;;;;5073985;28;20028;-75
2021/03/26 06:38:09;;;;;;;22.83;11.23;;;9.50;99.90;;;;;;5071116;28;20532;-75
2021/03/26 06:40:58;;;;;;;26.88;10.73;;;9.60;99.90;;;;;;5065148;28;20033;-75
2021/03/26 06:44:14;;;;;;;19.15;10.73;;;9.60;99.90;;;;;;5074007;28;20033;-75
2021/03/26 06:47:00;;;;;;;27.45;12.07;;;9.60;99.90;;;;;;5064134;28;20071;-73
2021/03/26 06:49:48;;;;;;;20.63;10.90;;;9.70;99.90;;;;;;5071820;28;20056;-73
2021/03/26 06:52:41;;;;;;;22.83;11.38;;;9.70;99.90;;;;;;5067993;28;20023;-74
2021/03/26 06:55:47;;;;;;;19.20;10.65;;;9.70;99.90;;;;;;5069857;28;20028;-74
2021/03/26 06:58:28;;;;;;;20.27;10.38;;;9.80;99.90;;;;;;5066364;28;20526;-73
2021/03/26 07:01:18;;;;;;;23.08;11.70;;;9.90;99.90;;;;;;5060317;28;20046;-73
2021/03/26 07:03:59;;;;;;;21.90;10.13;;;10.00;99.90;;;;;;5073321;28;20516;-75
2021/03/26 07:06:55;;;;;;;21.23;10.27;;;10.00;99.90;;;;;;5073223;28;20021;-73
2021/03/26 07:09:36;;;;;;;23.00;10.85;;;10.00;99.90;;;;;;5068074;28;20029;-73
2021/03/26 07:12:25;;;;;;;24.85;10.38;;;10.10;99.90;;;;;;5059800;28;20044;-73
2021/03/26 07:15:08;;;;;;;22.13;10.07;;;10.10;99.90;;;;;;5068355;28;20124;-73
2021/03/26 07:17:57;;;;;;;22.27;10.23;;;10.20;99.90;;;;;;5071216;28;20051;-75
2021/03/26 07:20:29;;;;;;;22.73;10.88;;;10.30;99.90;;;;;;5076441;28;20056;-75
2021/03/26 07:23:34;;;;;;;19.25;10.23;;;10.30;99.90;;;;;;5074896;28;20028;-75
2021/03/26 07:26:25;;;;;;;28.45;10.57;;;10.50;99.90;;;;;;5059034;28;20036;-73
2021/03/26 07:29:30;;;;;;;26.60;11.35;;;10.50;99.90;;;;;;5073263;28;20020;-73
2021/03/26 07:32:17;;;;;;;30.90;10.82;;;10.60;99.90;;;;;;5068647;28;20020;-74
2021/03/26 07:35:05;;;;;;;25.20;10.70;;;10.70;99.90;;;;;;5073045;28;20031;-74
2021/03/26 07:37:58;;;;;;;34.50;11.10;;;10.70;99.90;;;;;;5073077;28;20689;-74
2021/03/26 07:40:37;;;;;;;21.00;10.27;;;10.70;99.90;;;;;;5062824;28;20068;-75
2021/03/26 07:43:19;;;;;;;22.23;11.70;;;10.70;99.90;;;;;;5058800;28;20495;-74
2021/03/26 07:46:11;;;;;;;20.92;10.77;;;10.70;99.90;;;;;;5072628;28;20424;-74
2021/03/26 07:49:02;;;;;;;18.25;10.20;;;10.80;99.90;;;;;;5060414;28;20073;-74
2021/03/26 07:51:40;;;;;;;19.90;11.07;;;10.90;99.90;;;;;;5064430;28;20070;-74
2021/03/26 07:54:18;;;;;;;;;;;11.00;99.90;;;;;;5055167;28;20381;-74
2021/03/26 07:56:54;;;;;;;25.50;10.55;;;11.10;99.90;;;;;;5069089;28;19909;-74
2021/03/26 07:59:54;;;;;;;18.98;10.93;;;11.10;99.90;;;;;;5069319;28;20032;-74
2021/03/26 08:02:59;;;;;;;23.05;10.93;;;11.10;99.90;;;;;;5050161;28;20032;-74
2021/03/26 08:05:51;;;;;;;17.73;9.38;;;11.20;99.90;;;;;;5069185;28;20034;-74
2021/03/26 08:08:34;;;;;;;24.95;10.85;;;11.20;99.90;;;;;;5073097;28;20115;-74
2021/03/26 08:11:21;;;;;;;30.52;10.85;;;11.20;99.90;;;;;;5073089;28;20024;-74
2021/03/26 08:14:00;;;;;;;21.30;10.38;;;11.20;99.90;;;;;;5070270;28;20048;-75
2021/03/26 08:17:04;;;;;;;26.80;9.95;;;11.30;99.90;;;;;;5061790;28;20024;-75
2021/03/26 08:19:44;;;;;;;23.20;10.35;;;11.40;99.90;;;;;;5065986;28;20035;-75
2021/03/26 08:22:37;;;;;;;20.98;10.82;;;11.50;99.90;;;;;;5050138;28;20039;-75
2021/03/26 08:25:32;;;;;;;19.00;10.13;;;11.60;99.90;;;;;;5069554;28;20491;-75
2021/03/26 08:28:29;;;;;;;24.40;9.98;;;11.60;99.90;;;;;;5069032;28;20042;-73
2021/03/26 08:31:14;;;;;;;;;;;11.80;99.90;;;;;;5070925;28;20111;-73
2021/03/26 08:33:48;;;;;;;22.83;10.02;;;11.90;99.90;;;;;;5067868;28;20007;-73
2021/03/26 08:36:29;;;;;;;21.10;10.55;;;12.00;99.90;;;;;;5050786;28;21374;-72
2021/03/26 08:39:13;;;;;;;25.02;11.15;;;12.10;99.90;;;;;;5068978;28;20028;-74
2021/03/26 08:41:46;;;;;;;25.50;11.07;;;12.10;99.90;;;;;;5065314;28;20032;-76
2021/03/26 08:44:18;;;;;;;23.08;10.65;;;12.10;99.90;;;;;;5068070;28;20027;-72
2021/03/26 08:46:50;;;;;;;24.83;10.30;;;12.10;99.90;;;;;;5072744;28;20135;-74
2021/03/26 08:49:27;;;;;;;26.40;10.30;;;12.10;99.90;;;;;;5048749;28;20045;-74
2021/03/26 08:52:17;;;;;;;23.38;11.38;;;12.20;99.90;;;;;;5070032;28;20433;-75
2021/03/26 08:54:51;;;;;;;24.95;10.73;;;12.40;99.90;;;;;;5066673;28;20062;-75
2021/03/26 08:57:37;;;;;;;18.83;8.57;;;12.50;99.90;;;;;;5071632;28;20029;-77
2021/03/26 09:00:29;;;;;;;18.27;10.25;;;12.50;99.90;;;;;;5055633;28;20032;-72
2021/03/26 09:03:09;;;;;;;22.45;9.63;;;12.60;99.90;;;;;;5072234;28;20032;-74
2021/03/26 09:06:03;;;;;;;19.20;9.55;;;12.60;99.90;;;;;;5074217;28;20020;-75
2021/03/26 09:08:50;;;;;;;20.88;10.48;;;12.70;99.90;;;;;;5053041;28;20032;-73
2021/03/26 09:11:25;;;;;;;18.50;7.32;;;12.80;99.90;;;;;;5075422;28;20078;-73
2021/03/26 09:14:22;;;;;;;21.75;8.82;;;13.00;99.90;;;;;;5074652;28;20416;-73
2021/03/26 09:17:20;;;;;;;21.38;9.75;;;13.00;99.90;;;;;;5056615;28;20032;-73
2021/03/26 09:20:02;;;;;;;16.35;7.55;;;13.10;99.90;;;;;;5041676;28;20040;-74
2021/03/26 09:23:05;;;;;;;20.25;8.85;;;13.20;99.90;;;;;;5050877;28;20040;-75
2021/03/26 09:25:31;;;;;;;15.15;8.63;;;13.20;99.90;;;;;;5072615;28;20539;-75
2021/03/26 09:28:02;;;;;;;16.77;6.88;;;13.30;99.90;;;;;;5057632;28;20024;-75
2021/03/26 09:30:52;;;;;;;15.10;7.30;;;13.40;99.90;;;;;;5053744;28;20070;-75
2021/03/26 09:33:19;;;;;;;11.82;7.25;;;13.50;99.90;;;;;;5074050;28;20068;-73
2021/03/26 09:35:53;;;;;;;14.15;7.00;;;13.50;99.90;;;;;;5080435;28;20040;-74
2021/03/26 09:38:42;;;;;;;18.77;8.10;;;13.60;99.90;;;;;;5076498;28;20029;-73
2021/03/26 09:41:24;;;;;;;14.60;7.97;;;13.70;99.90;;;;;;5058093;28;20043;-73
2021/03/26 09:44:19;;;;;;;12.02;6.10;;;13.80;99.90;;;;;;5057112;28;20132;-72
2021/03/26 09:47:10;;;;;;;15.80;6.63;;;13.90;99.90;;;;;;5074106;28;20029;-72
2021/03/26 09:49:39;;;;;;;9.57;6.20;;;13.70;99.90;;;;;;5074108;28;20024;-72
2021/03/26 09:52:19;;;;;;;14.77;6.80;;;13.70;99.90;;;;;;5067227;28;20021;-72
2021/03/26 09:54:49;;;;;;;13.70;6.28;;;13.90;99.90;;;;;;5073590;28;20485;-71
2021/03/26 09:57:41;;;;;;;17.23;6.93;;;14.10;99.90;;;;;;5055224;28;20029;-71
2021/03/26 10:00:45;;;;;;;18.75;6.30;;;14.20;99.90;;;;;;5045503;28;20162;-72
2021/03/26 10:03:27;;;;;;;13.10;5.05;;;14.30;99.90;;;;;;5068802;28;20033;-71
2021/03/26 10:06:25;;;;;;;12.38;6.00;;;14.30;99.90;;;;;;5068049;28;20099;-71
2021/03/26 10:09:08;;;;;;;13.48;5.03;;;14.50;99.90;;;;;;5022717;28;20037;-72
2021/03/26 10:12:03;;;;;;;9.48;5.22;;;14.70;99.90;;;;;;5067221;28;20020;-72
2021/03/26 10:14:33;;;;;;;9.65;5.38;;;14.90;99.90;;;;;;5067134;28;20029;-73
2021/03/26 10:17:10;;;;;;;12.60;5.70;;;15.00;99.90;;;;;;5067543;28;20401;-73
2021/03/26 10:19:40;;;;;;;13.85;5.55;;;15.00;99.90;;;;;;5049512;28;20034;-73
2021/03/26 10:22:34;;;;;;;11.68;5.60;;;15.00;99.90;;;;;;5054997;28;20032;-73
2021/03/26 10:25:07;;;;;;;9.73;5.20;;;14.90;99.90;;;;;;5070505;28;20028;-73
2021/03/26 10:27:48;;;;;;;7.13;3.85;;;14.90;99.90;;;;;;5055805;28;20029;-73
2021/03/26 10:30:35;;;;;;;7.88;4.47;;;14.90;99.90;;;;;;5074164;28;20024;-73
2021/03/26 10:33:10;;;;;;;12.55;4.20;;;14.90;99.90;;;;;;5073168;28;20111;-72
2021/03/26 10:35:39;;;;;;;9.32;4.30;;;15.10;99.90;;;;;;5055050;28;20021;-72
2021/03/26 10:38:12;;;;;;;7.60;3.30;;;15.10;99.90;;;;;;5070902;28;20396;-72
2021/03/26 10:41:02;;;;;;;11.52;4.22;;;15.00;99.90;;;;;;5074502;28;20078;-71
2021/03/26 10:43:42;;;;;;;13.18;4.40;;;14.80;99.90;;;;;;5072973;28;20021;-72
2021/03/26 10:46:12;;;;;;;9.05;4.75;;;14.60;99.90;;;;;;5073117;28;20067;-73
2021/03/26 10:48:48;;;;;;;9.50;3.78;;;14.40;99.90;;;;;;5072564;28;20086;-73
2021/03/26 10:51:35;;;;;;;12.20;4.40;;;14.60;99.90;;;;;;5055460;28;20068;-73
2021/03/26 10:54:37;;;;;;;6.57;3.72;;;14.60;99.90;;;;;;5055088;28;20068;-73
2021/03/26 10:57:22;;;;;;;9.93;3.58;;;14.60;99.90;;;;;;5051708;28;20131;-73
2021/03/26 10:59:53;;;;;;;5.38;2.80;;;14.60;99.90;;;;;;5073386;28;20044;-73
2021/03/26 11:02:42;;;;;;;9.85;3.10;;;14.60;99.90;;;;;;5073355;28;20028;-73
2021/03/26 11:05:36;;;;;;;5.35;3.25;;;14.80;99.90;;;;;;5061185;28;20127;-73
2021/03/26 11:08:01;;;;;;;6.72;2.85;;;15.00;99.90;;;;;;5070747;28;20036;-72
2021/03/26 11:10:42;;;;;;;7.22;2.78;;;15.10;99.90;;;;;;5047087;28;20397;-73
2021/03/26 11:13:23;;;;;;;11.43;3.22;;;15.10;99.90;;;;;;5070975;28;20058;-73
2021/03/26 11:16:00;;;;;;;4.97;3.03;;;14.90;99.90;;;;;;5073036;28;20036;-73
2021/03/26 11:18:33;;;;;;;8.38;3.60;;;15.10;99.90;;;;;;5068803;28;20090;-73
2021/03/26 11:21:02;;;;;;;6.70;4.25;;;14.90;99.90;;;;;;5067330;28;20017;-72
2021/03/26 11:23:37;;;;;;;7.97;3.60;;;14.90;99.90;;;;;;5065464;28;20021;-73
2021/03/26 11:26:09;;;;;;;8.45;3.50;;;14.90;99.90;;;;;;5054142;28;20021;-74
2021/03/26 11:28:59;;;;;;;13.18;3.55;;;14.90;99.90;;;;;;5050675;28;20025;-73
2021/03/26 11:31:49;;;;;;;7.05;3.50;;;14.80;99.90;;;;;;5073094;28;20093;-74
2021/03/26 11:34:27;;;;;;;12.32;6.80;;;15.00;99.90;;;;;;5053015;28;20063;-74
2021/03/26 11:37:17;;;;;;;18.33;3.78;;;15.10;99.90;;;;;;5069843;28;20055;-73
2021/03/26 11:40:15;;;;;;;9.05;3.78;;;15.30;99.90;;;;;;5074134;28;20062;-72
2021/03/26 11:42:49;;;;;;;7.80;3.50;;;15.40;99.90;;;;;;5074533;28;20170;-73
2021/03/26 11:45:35;;;;;;;5.90;3.15;;;15.30;99.90;;;;;;5067647;28;20469;-72
2021/03/26 11:48:09;;;;;;;22.13;4.07;;;15.30;99.90;;;;;;5055971;28;20497;-73
2021/03/26 11:50:50;;;;;;;6.45;3.22;;;15.40;99.90;;;;;;5071878;28;20081;-73
2021/03/26 11:53:21;;;;;;;12.13;3.88;;;15.40;99.90;;;;;;5066432;28;20032;-73
2021/03/26 11:56:04;;;;;;;4.68;2.75;;;15.60;99.90;;;;;;5067745;28;20016;-73
2021/03/26 11:59:07;;;;;;;14.40;3.08;;;15.50;99.90;;;;;;5060022;28;20029;-74
2021/03/26 12:02:00;;;;;;;6.55;2.75;;;15.30;99.60;;;;;;5044900;28;20539;-73
2021/03/26 12:04:37;;;;;;;9.45;2.15;;;15.50;99.70;;;;;;5038910;28;20044;-73
2021/03/26 12:07:13;;;;;;;8.43;2.88;;;15.60;98.80;;;;;;5051083;28;20016;-73
2021/03/26 12:09:46;;;;;;;6.18;2.83;;;15.50;98.70;;;;;;5075420;28;20028;-73
2021/03/26 12:12:31;;;;;;;8.38;3.10;;;15.80;98.60;;;;;;5059832;28;20017;-73
2021/03/26 12:15:14;;;;;;;10.25;2.65;;;15.80;98.30;;;;;;5068060;28;20112;-73
2021/03/26 12:17:48;;;;;;;6.47;2.88;;;15.50;98.40;;;;;;5067882;28;20112;-73
2021/03/26 12:20:17;;;;;;;6.28;2.20;;;15.60;98.70;;;;;;5062108;28;20404;-73
2021/03/26 12:22:59;;;;;;;8.65;2.67;;;15.60;98.70;;;;;;5078699;28;20036;-73
2021/03/26 12:25:34;;;;;;;8.75;2.53;;;15.40;98.60;;;;;;5078212;28;20024;-72
2021/03/26 12:28:09;;;;;;;11.18;2.38;;;15.30;98.70;;;;;;5077895;28;20025;-73
2021/03/26 12:31:02;;;;;;;5.78;2.35;;;15.30;98.90;;;;;;5062378;28;20036;-73
2021/03/26 12:33:46;;;;;;;3.70;2.58;;;15.50;99.00;;;;;;5074762;28;20020;-74
2021/03/26 12:36:38;;;;;;;13.35;2.17;;;15.70;98.10;;;;;;5055708;28;20028;-73
2021/03/26 12:39:27;;;;;;;8.85;2.88;;;15.80;98.20;;;;;;5052549;28;20016;-73
2021/03/26 12:42:25;;;;;;;9.30;3.33;;;15.90;96.80;;;;;;5041729;28;20459;-72
2021/03/26 12:45:09;;;;;;;3.70;2.28;;;15.90;96.70;;;;;;5055986;28;20511;-71
2021/03/26 12:47:48;;;;;;;9.05;2.78;;;16.10;96.70;;;;;;5067145;28;20098;-73
2021/03/26 12:50:24;;;;;;;9.38;2.75;;;16.00;96.70;;;;;;5064817;28;20032;-72
2021/03/26 12:53:15;;;;;;;5.32;2.50;;;16.00;96.70;;;;;;5048271;28;20123;-74
2021/03/26 12:56:20;;;;;;;10.27;2.90;;;15.80;96.60;;;;;;5072174;28;20037;-73
2021/03/26 12:59:09;;;;;;;8.75;2.35;;;15.70;97.20;;;;;;5052234;28;20028;-73
2021/03/26 13:02:03;;;;;;;5.60;2.65;;;15.80;96.80;;;;;;5060287;28;20029;-75
2021/03/26 13:04:38;;;;;;;10.43;2.28;;;16.10;96.30;;;;;;5039630;28;20029;-73
2021/03/26 13:07:20;;;;;;;4.30;2.42;;;16.30;95.90;;;;;;5071579;28;20134;-73
2021/03/26 13:10:00;;;;;;;4.18;2.50;;;16.30;95.70;;;;;;5062679;28;20477;-73
2021/03/26 13:12:31;;;;;;;5.53;2.28;;;16.60;94.70;;;;;;5064931;28;20165;-72
2021/03/26 13:15:12;;;;;;;6.40;2.42;;;16.50;94.50;;;;;;5064203;28;20067;-72
2021/03/26 13:17:38;;;;;;;10.15;2.10;;;16.50;94.80;;;;;;5062321;28;20097;-70
2021/03/26 13:20:17;;;;;;;7.60;3.67;;;16.60;94.90;;;;;;5070606;28;20066;-71
2021/03/26 13:22:54;;;;;;;4.93;2.38;;;16.70;94.60;;;;;;5053198;28;20025;-71
2021/03/26 13:25:25;;;;;;;4.90;2.67;;;16.50;95.40;;;;;;5070659;28;20099;-71
2021/03/26 13:27:56;;;;;;;4.57;2.30;;;16.40;95.20;;;;;;5072072;28;20107;-71
2021/03/26 13:30:24;;;;;;;5.05;2.50;;;16.10;95.90;;;;;;5053445;28;20028;-72
2021/03/26 13:32:55;;;;;;;;;;;16.20;96.30;;;;;;5071967;28;20477;-72
2021/03/26 13:35:37;;;;;;;5.88;3.47;;;16.20;96.30;;;;;;5048718;28;20369;-72
2021/03/26 13:38:20;;;;;;;4.45;2.08;;;16.30;96.20;;;;;;5065640;28;20130;-73
2021/03/26 13:40:50;;;;;;;4.82;2.70;;;16.40;96.10;;;;;;5062447;28;20837;-75
2021/03/26 13:43:20;;;;;;;2.88;2.20;;;16.40;95.80;;;;;;5064647;28;20012;-72
2021/03/26 13:46:09;;;;;;;3.85;2.10;;;16.20;96.00;;;;;;5041057;28;20485;-73